Share

Medford, WI

Taylor County (KMDZ) Elev 1470 ft | 45.10 °N, 90.30 °W | Change Station
Active Advisory: Special Statement Active Notice: Public Information Statement

Current weather conditions updated 27 minutes ago

Overcast
Overcast
49 °F
Feels Like 49 °F
N
0
Wind Variable Wind from North
Sunrise 6:06 AM
Sunset 7:54 PM
Moon Waning Gibbous

Today is forecast to be Warmer than yesterday. Scattered thunderstorms possible.

Pressure 29.97 in
Visibility 1.0 miles
Clouds Scattered Clouds 4700 ft
Overcast 6000 ft
Dew Point 49 °F
Humidity 100%
Rainfall 0.00 in
Snow Depth Not available.
UV 0 out of 16
Pollen 8.50 out of 12
Air Quality Not available.
Flu Activity Sporadic
METAR KMDZ 210655Z AUTO 00000KT 1SM BR SCT047 OVC060 10/10 A2997 RMK AO2 T00960096

More Conditions Fewer Conditions

Pressure 29.97 in
Visibility 1.0 miles
Clouds Scattered Clouds 4700 ft
Overcast 6000 ft
Dew Point 49 °F
Humidity 100%
Rainfall 0.00 in
Snow Depth Not available.
UV 0 out of 16
Pollen 8.50 out of 12
Air Quality Not available.
Flu Activity Sporadic
METAR KMDZ 210655Z AUTO 00000KT 1SM BR SCT047 OVC060 10/10 A2997 RMK AO2 T00960096

More Conditions Fewer Conditions

10-Day Weather Forecast

Almanac

Astronomy

Apr. 21, 2014 Rise Set
Actual Time 6:06 AM CDT 7:54 PM CDT
Civil Twilight 5:34 AM CDT 8:26 PM CDT
Nautical Twilight 4:56 AM CDT 9:04 PM CDT
Astronomical Twilight 4:15 AM CDT 9:46 PM CDT
Moon 1:29 AM CDT 11:29 AM CDT
Length of Visible Light 14h 51m
Length of Day
13h 48m
Tomorrow will be 2m 55s longer.
Waning Gibbous, 62% of the Moon is Illuminated
Today
Waning Gibbous
Apr 22
Last Quarter
Apr 29
New
May 6
First Quarter
May 14
Full

Today's Extremes

State Highs State Lows

Community

  • Snowy Robin
    Snowy Robin
  • Sun Pillar and Geese
    Sun Pillar and Geese
  • Showers on the Way
    Showers on the Way
  • Easter Morning Fog
    Easter Morning Fog
  • Easter Dance
    Easter Dance

WunderPhotos

Upload Photos

1,703,572 photos uploaded!

WunderBlogs® & News

Nearby

Snow Depth

Station Depth Elevation
No new snow has been reported.

Coastal Water Temperatures

Place Temperature
No Stations Reporting

Earthquake Activity

City Distance Mag. Time & Date
No recent earthquake activity has been reported nearby.
Minimum magnitude displayed is 2.5.

Nearby Weather Stations

Station Location Temp. Dew Point Humidity Wind Precip. Elev Updated Type
RAWS DIAMOND LAKE WI, Lublin, WI 51 °F 51 °F 100% NNE  at  1 mph 0.00 in / hr 1316 ft 1:14 AM CDT MADIS
WIDOT Abbotsford - STH 29 3 mi E of Abbo, Abbotsford, WI 52 °F 51 °F 97% NE  at  0 mph 0.00 in / hr 1400 ft 1:52 AM CDT MADIS
Rib Falls Repair, Athens, WI 51.4 °F 50 °F 96% ENE  at  0.0 mph 0.00 in / hr 1348 ft 2:21 AM CDT Normal

Show More Stations Show Fewer Stations

What do you think?

We're not finished. Please let us know what you like, what you don't like, and what you are still missing.